sensor_id;sensor_type;location;lat;lon;timestamp;temperature;humidity
75451;DHT22;64029;48.244;9.188;2023-06-10T00:00:55;14.70;60.80
75451;DHT22;64029;48.244;9.188;2023-06-10T00:03:22;14.70;60.90
75451;DHT22;64029;48.244;9.188;2023-06-10T00:05:51;14.60;60.90
75451;DHT22;64029;48.244;9.188;2023-06-10T00:08:18;14.50;61.10
75451;DHT22;64029;48.244;9.188;2023-06-10T00:10:45;14.50;61.30
75451;DHT22;64029;48.244;9.188;2023-06-10T00:13:12;14.50;61.40
75451;DHT22;64029;48.244;9.188;2023-06-10T00:15:39;14.40;61.60
75451;DHT22;64029;48.244;9.188;2023-06-10T00:18:06;14.40;61.60
75451;DHT22;64029;48.244;9.188;2023-06-10T00:20:35;14.40;61.70
75451;DHT22;64029;48.244;9.188;2023-06-10T00:23:04;14.40;61.70
75451;DHT22;64029;48.244;9.188;2023-06-10T00:25:33;14.30;61.70
75451;DHT22;64029;48.244;9.188;2023-06-10T00:28:00;14.30;61.90
75451;DHT22;64029;48.244;9.188;2023-06-10T00:30:27;14.20;62.00
75451;DHT22;64029;48.244;9.188;2023-06-10T00:32:54;14.20;61.70
75451;DHT22;64029;48.244;9.188;2023-06-10T00:35:21;14.20;61.80
75451;DHT22;64029;48.244;9.188;2023-06-10T00:37:47;14.20;62.70
75451;DHT22;64029;48.244;9.188;2023-06-10T00:40:16;14.10;61.70
75451;DHT22;64029;48.244;9.188;2023-06-10T00:42:43;14.10;61.80
75451;DHT22;64029;48.244;9.188;2023-06-10T00:45:10;14.10;62.00
75451;DHT22;64029;48.244;9.188;2023-06-10T00:47:37;14.10;62.00
75451;DHT22;64029;48.244;9.188;2023-06-10T00:50:05;14.00;62.10
75451;DHT22;64029;48.244;9.188;2023-06-10T00:52:33;14.00;61.70
75451;DHT22;64029;48.244;9.188;2023-06-10T00:55:01;14.00;61.70
75451;DHT22;64029;48.244;9.188;2023-06-10T00:57:30;13.90;61.70
75451;DHT22;64029;48.244;9.188;2023-06-10T00:59:58;13.90;61.90
75451;DHT22;64029;48.244;9.188;2023-06-10T01:02:24;13.80;62.10
75451;DHT22;64029;48.244;9.188;2023-06-10T01:04:51;13.80;62.30
75451;DHT22;64029;48.244;9.188;2023-06-10T01:07:23;13.80;62.00
75451;DHT22;64029;48.244;9.188;2023-06-10T01:09:54;13.80;62.20
75451;DHT22;64029;48.244;9.188;2023-06-10T01:12:41;13.70;62.50
75451;DHT22;64029;48.244;9.188;2023-06-10T01:15:14;13.70;62.60
75451;DHT22;64029;48.244;9.188;2023-06-10T01:17:54;13.60;62.60
75451;DHT22;64029;48.244;9.188;2023-06-10T01:20:21;13.60;62.60
75451;DHT22;64029;48.244;9.188;2023-06-10T01:22:49;13.50;62.80
75451;DHT22;64029;48.244;9.188;2023-06-10T01:25:16;13.50;62.50
75451;DHT22;64029;48.244;9.188;2023-06-10T01:27:46;13.50;62.70
75451;DHT22;64029;48.244;9.188;2023-06-10T01:30:18;13.50;62.90
75451;DHT22;64029;48.244;9.188;2023-06-10T01:32:50;13.40;63.10
75451;DHT22;64029;48.244;9.188;2023-06-10T01:35:19;13.40;63.10
75451;DHT22;64029;48.244;9.188;2023-06-10T01:37:50;13.40;63.30
75451;DHT22;64029;48.244;9.188;2023-06-10T01:40:19;13.30;63.20
75451;DHT22;64029;48.244;9.188;2023-06-10T01:42:46;13.30;63.40
75451;DHT22;64029;48.244;9.188;2023-06-10T01:45:13;13.30;63.20
75451;DHT22;64029;48.244;9.188;2023-06-10T01:47:40;13.30;63.00
75451;DHT22;64029;48.244;9.188;2023-06-10T01:50:08;13.30;63.30
75451;DHT22;64029;48.244;9.188;2023-06-10T01:52:34;13.20;63.30
75451;DHT22;64029;48.244;9.188;2023-06-10T01:55:05;13.20;63.20
75451;DHT22;64029;48.244;9.188;2023-06-10T01:57:31;13.20;63.40
75451;DHT22;64029;48.244;9.188;2023-06-10T01:59:58;13.10;63.30
75451;DHT22;64029;48.244;9.188;2023-06-10T02:02:25;13.10;63.50
75451;DHT22;64029;48.244;9.188;2023-06-10T02:04:52;13.10;63.40
75451;DHT22;64029;48.244;9.188;2023-06-10T02:07:18;13.10;63.60
75451;DHT22;64029;48.244;9.188;2023-06-10T02:09:46;13.10;63.70
75451;DHT22;64029;48.244;9.188;2023-06-10T02:12:14;13.00;63.90
75451;DHT22;64029;48.244;9.188;2023-06-10T02:14:40;13.00;64.20
75451;DHT22;64029;48.244;9.188;2023-06-10T02:17:07;13.00;64.00
75451;DHT22;64029;48.244;9.188;2023-06-10T02:19:38;12.90;64.60
75451;DHT22;64029;48.244;9.188;2023-06-10T02:22:08;12.80;64.70
75451;DHT22;64029;48.244;9.188;2023-06-10T02:24:35;12.80;64.50
75451;DHT22;64029;48.244;9.188;2023-06-10T02:27:04;12.80;64.30
75451;DHT22;64029;48.244;9.188;2023-06-10T02:29:34;12.80;64.70
75451;DHT22;64029;48.244;9.188;2023-06-10T02:32:01;12.70;64.50
75451;DHT22;64029;48.244;9.188;2023-06-10T02:34:28;12.70;64.70
75451;DHT22;64029;48.244;9.188;2023-06-10T02:36:55;12.70;64.80
75451;DHT22;64029;48.244;9.188;2023-06-10T02:39:22;12.60;65.00
75451;DHT22;64029;48.244;9.188;2023-06-10T02:41:48;12.60;64.90
75451;DHT22;64029;48.244;9.188;2023-06-10T02:44:15;12.60;64.70
75451;DHT22;64029;48.244;9.188;2023-06-10T02:46:44;12.60;65.00
75451;DHT22;64029;48.244;9.188;2023-06-10T02:49:11;12.50;65.20
75451;DHT22;64029;48.244;9.188;2023-06-10T02:51:38;12.50;65.30
75451;DHT22;64029;48.244;9.188;2023-06-10T02:54:05;12.50;65.00
75451;DHT22;64029;48.244;9.188;2023-06-10T02:56:32;12.50;64.40
75451;DHT22;64029;48.244;9.188;2023-06-10T02:58:59;12.50;65.00
75451;DHT22;64029;48.244;9.188;2023-06-10T03:01:26;12.40;65.10
75451;DHT22;64029;48.244;9.188;2023-06-10T03:03:54;12.40;65.00
75451;DHT22;64029;48.244;9.188;2023-06-10T03:06:21;12.40;65.20
75451;DHT22;64029;48.244;9.188;2023-06-10T03:08:50;12.40;65.40
75451;DHT22;64029;48.244;9.188;2023-06-10T03:11:17;12.40;65.10
75451;DHT22;64029;48.244;9.188;2023-06-10T03:13:45;12.40;64.40
75451;DHT22;64029;48.244;9.188;2023-06-10T03:16:12;12.40;64.20
75451;DHT22;64029;48.244;9.188;2023-06-10T03:18:39;12.30;64.50
75451;DHT22;64029;48.244;9.188;2023-06-10T03:21:07;12.30;64.90
75451;DHT22;64029;48.244;9.188;2023-06-10T03:23:35;12.30;65.20
75451;DHT22;64029;48.244;9.188;2023-06-10T03:26:02;12.20;65.30
75451;DHT22;64029;48.244;9.188;2023-06-10T03:28:30;12.20;65.20
75451;DHT22;64029;48.244;9.188;2023-06-10T03:30:57;12.20;64.80
75451;DHT22;64029;48.244;9.188;2023-06-10T03:33:23;12.20;64.30
75451;DHT22;64029;48.244;9.188;2023-06-10T03:35:51;12.20;65.20
75451;DHT22;64029;48.244;9.188;2023-06-10T03:38:19;12.10;65.70
75451;DHT22;64029;48.244;9.188;2023-06-10T03:40:47;12.10;65.70
75451;DHT22;64029;48.244;9.188;2023-06-10T03:43:14;12.10;65.60
75451;DHT22;64029;48.244;9.188;2023-06-10T03:45:40;12.10;65.30
75451;DHT22;64029;48.244;9.188;2023-06-10T03:48:08;12.10;65.00
75451;DHT22;64029;48.244;9.188;2023-06-10T03:50:35;12.10;64.40
75451;DHT22;64029;48.244;9.188;2023-06-10T03:53:02;12.10;64.30
75451;DHT22;64029;48.244;9.188;2023-06-10T03:55:30;12.10;64.20
75451;DHT22;64029;48.244;9.188;2023-06-10T03:57:57;12.10;64.60
75451;DHT22;64029;48.244;9.188;2023-06-10T04:00:24;12.00;64.60
75451;DHT22;64029;48.244;9.188;2023-06-10T04:02:51;12.00;64.80
75451;DHT22;64029;48.244;9.188;2023-06-10T04:05:19;12.00;65.00
75451;DHT22;64029;48.244;9.188;2023-06-10T04:07:47;12.00;65.40
75451;DHT22;64029;48.244;9.188;2023-06-10T04:10:14;12.00;65.10
75451;DHT22;64029;48.244;9.188;2023-06-10T04:12:42;12.00;65.00
75451;DHT22;64029;48.244;9.188;2023-06-10T04:15:09;12.00;65.20
75451;DHT22;64029;48.244;9.188;2023-06-10T04:17:37;12.00;65.20
75451;DHT22;64029;48.244;9.188;2023-06-10T04:20:05;12.00;65.40
75451;DHT22;64029;48.244;9.188;2023-06-10T04:22:33;12.00;65.00
75451;DHT22;64029;48.244;9.188;2023-06-10T04:25:00;12.00;65.30
75451;DHT22;64029;48.244;9.188;2023-06-10T04:27:27;12.10;66.50
75451;DHT22;64029;48.244;9.188;2023-06-10T04:29:55;12.10;66.00
75451;DHT22;64029;48.244;9.188;2023-06-10T04:32:21;12.10;66.10
75451;DHT22;64029;48.244;9.188;2023-06-10T04:34:49;12.10;66.70
75451;DHT22;64029;48.244;9.188;2023-06-10T04:37:15;12.10;66.00
75451;DHT22;64029;48.244;9.188;2023-06-10T04:39:42;12.10;66.00
75451;DHT22;64029;48.244;9.188;2023-06-10T04:42:09;12.10;66.70
75451;DHT22;64029;48.244;9.188;2023-06-10T04:44:36;12.10;67.60
75451;DHT22;64029;48.244;9.188;2023-06-10T04:47:05;12.10;66.90
75451;DHT22;64029;48.244;9.188;2023-06-10T04:49:33;12.10;67.40
75451;DHT22;64029;48.244;9.188;2023-06-10T04:52:00;12.10;67.40
75451;DHT22;64029;48.244;9.188;2023-06-10T04:54:30;12.20;67.60
75451;DHT22;64029;48.244;9.188;2023-06-10T04:56:58;12.20;67.80
75451;DHT22;64029;48.244;9.188;2023-06-10T04:59:24;12.20;68.30
75451;DHT22;64029;48.244;9.188;2023-06-10T05:01:52;12.20;70.00
75451;DHT22;64029;48.244;9.188;2023-06-10T05:04:20;12.20;68.50
75451;DHT22;64029;48.244;9.188;2023-06-10T05:06:46;12.30;69.00
75451;DHT22;64029;48.244;9.188;2023-06-10T05:09:13;12.30;68.80
75451;DHT22;64029;48.244;9.188;2023-06-10T05:11:41;12.40;68.70
75451;DHT22;64029;48.244;9.188;2023-06-10T05:14:08;12.40;68.90
75451;DHT22;64029;48.244;9.188;2023-06-10T05:16:34;12.40;69.40
75451;DHT22;64029;48.244;9.188;2023-06-10T05:19:01;12.40;68.50
75451;DHT22;64029;48.244;9.188;2023-06-10T05:21:30;12.50;67.60
75451;DHT22;64029;48.244;9.188;2023-06-10T05:23:56;12.50;67.70
75451;DHT22;64029;48.244;9.188;2023-06-10T05:26:23;12.50;67.60
75451;DHT22;64029;48.244;9.188;2023-06-10T05:28:50;12.60;67.50
75451;DHT22;64029;48.244;9.188;2023-06-10T05:31:18;12.70;67.80
75451;DHT22;64029;48.244;9.188;2023-06-10T05:33:44;12.70;67.80
75451;DHT22;64029;48.244;9.188;2023-06-10T05:36:11;12.70;68.00
75451;DHT22;64029;48.244;9.188;2023-06-10T05:38:39;12.80;68.20
75451;DHT22;64029;48.244;9.188;2023-06-10T05:41:06;12.80;67.10
75451;DHT22;64029;48.244;9.188;2023-06-10T05:43:33;12.90;67.50
75451;DHT22;64029;48.244;9.188;2023-06-10T05:46:00;12.90;67.50
75451;DHT22;64029;48.244;9.188;2023-06-10T05:48:27;13.00;68.20
75451;DHT22;64029;48.244;9.188;2023-06-10T05:50:54;13.10;67.70
75451;DHT22;64029;48.244;9.188;2023-06-10T05:53:20;13.10;67.50
75451;DHT22;64029;48.244;9.188;2023-06-10T05:55:49;13.20;70.50
75451;DHT22;64029;48.244;9.188;2023-06-10T05:58:16;13.30;69.00
75451;DHT22;64029;48.244;9.188;2023-06-10T06:00:43;13.40;69.40
75451;DHT22;64029;48.244;9.188;2023-06-10T06:03:10;13.60;70.80
75451;DHT22;64029;48.244;9.188;2023-06-10T06:05:37;13.70;70.80
75451;DHT22;64029;48.244;9.188;2023-06-10T06:08:04;13.80;70.90
75451;DHT22;64029;48.244;9.188;2023-06-10T06:10:31;14.00;72.10
75451;DHT22;64029;48.244;9.188;2023-06-10T06:13:00;14.20;72.90
75451;DHT22;64029;48.244;9.188;2023-06-10T06:15:27;14.40;74.20
75451;DHT22;64029;48.244;9.188;2023-06-10T06:17:54;14.50;73.30
75451;DHT22;64029;48.244;9.188;2023-06-10T06:20:22;14.80;74.20
75451;DHT22;64029;48.244;9.188;2023-06-10T06:22:48;15.00;74.20
75451;DHT22;64029;48.244;9.188;2023-06-10T06:25:15;15.10;74.90
75451;DHT22;64029;48.244;9.188;2023-06-10T06:27:42;15.30;75.30
75451;DHT22;64029;48.244;9.188;2023-06-10T06:30:11;15.50;74.80
75451;DHT22;64029;48.244;9.188;2023-06-10T06:32:38;15.70;74.50
75451;DHT22;64029;48.244;9.188;2023-06-10T06:35:05;15.80;73.60
75451;DHT22;64029;48.244;9.188;2023-06-10T06:37:33;15.90;73.60
75451;DHT22;64029;48.244;9.188;2023-06-10T06:40:00;16.10;73.00
75451;DHT22;64029;48.244;9.188;2023-06-10T06:42:27;16.30;74.00
75451;DHT22;64029;48.244;9.188;2023-06-10T06:44:54;16.50;73.70
75451;DHT22;64029;48.244;9.188;2023-06-10T06:47:22;16.70;73.60
75451;DHT22;64029;48.244;9.188;2023-06-10T06:49:49;16.90;73.30
75451;DHT22;64029;48.244;9.188;2023-06-10T06:52:16;17.20;72.30
75451;DHT22;64029;48.244;9.188;2023-06-10T06:54:43;17.40;72.30
75451;DHT22;64029;48.244;9.188;2023-06-10T06:57:09;17.60;72.00
75451;DHT22;64029;48.244;9.188;2023-06-10T06:59:36;17.80;71.30
75451;DHT22;64029;48.244;9.188;2023-06-10T07:02:03;18.10;71.10
75451;DHT22;64029;48.244;9.188;2023-06-10T07:04:32;18.40;70.20
75451;DHT22;64029;48.244;9.188;2023-06-10T07:06:58;18.60;70.40
75451;DHT22;64029;48.244;9.188;2023-06-10T07:09:25;18.90;69.60
75451;DHT22;64029;48.244;9.188;2023-06-10T07:11:53;19.30;69.50
75451;DHT22;64029;48.244;9.188;2023-06-10T07:14:20;19.50;68.80
75451;DHT22;64029;48.244;9.188;2023-06-10T07:16:47;19.80;68.80
75451;DHT22;64029;48.244;9.188;2023-06-10T07:19:15;20.10;68.50
75451;DHT22;64029;48.244;9.188;2023-06-10T07:21:43;20.40;68.20
75451;DHT22;64029;48.244;9.188;2023-06-10T07:24:10;20.60;68.50
75451;DHT22;64029;48.244;9.188;2023-06-10T07:26:37;20.90;67.90
75451;DHT22;64029;48.244;9.188;2023-06-10T07:29:04;21.10;68.20
75451;DHT22;64029;48.244;9.188;2023-06-10T07:31:30;21.40;68.20
75451;DHT22;64029;48.244;9.188;2023-06-10T07:33:57;21.60;66.70
75451;DHT22;64029;48.244;9.188;2023-06-10T07:36:24;21.70;66.30
75451;DHT22;64029;48.244;9.188;2023-06-10T07:38:54;21.90;65.90
75451;DHT22;64029;48.244;9.188;2023-06-10T07:41:22;22.00;64.80
75451;DHT22;64029;48.244;9.188;2023-06-10T07:43:51;22.10;63.30
75451;DHT22;64029;48.244;9.188;2023-06-10T07:46:20;22.20;63.80
75451;DHT22;64029;48.244;9.188;2023-06-10T07:48:47;22.30;63.50
75451;DHT22;64029;48.244;9.188;2023-06-10T07:51:15;22.50;62.10
75451;DHT22;64029;48.244;9.188;2023-06-10T07:53:42;22.60;63.00
75451;DHT22;64029;48.244;9.188;2023-06-10T07:56:10;22.80;62.50
75451;DHT22;64029;48.244;9.188;2023-06-10T07:58:37;22.90;61.70
75451;DHT22;64029;48.244;9.188;2023-06-10T08:01:04;23.00;61.80
75451;DHT22;64029;48.244;9.188;2023-06-10T08:03:31;23.20;61.10
75451;DHT22;64029;48.244;9.188;2023-06-10T08:05:58;23.20;60.10
75451;DHT22;64029;48.244;9.188;2023-06-10T08:08:25;23.30;59.20
75451;DHT22;64029;48.244;9.188;2023-06-10T08:10:51;23.40;59.30
75451;DHT22;64029;48.244;9.188;2023-06-10T08:13:20;23.50;59.20
75451;DHT22;64029;48.244;9.188;2023-06-10T08:15:47;23.60;59.20
75451;DHT22;64029;48.244;9.188;2023-06-10T08:18:16;23.80;59.30
75451;DHT22;64029;48.244;9.188;2023-06-10T08:20:43;23.90;59.10
75451;DHT22;64029;48.244;9.188;2023-06-10T08:23:10;23.90;58.50
75451;DHT22;64029;48.244;9.188;2023-06-10T08:25:37;24.00;58.00
75451;DHT22;64029;48.244;9.188;2023-06-10T08:28:03;24.10;58.30
75451;DHT22;64029;48.244;9.188;2023-06-10T08:30:32;24.20;57.70
75451;DHT22;64029;48.244;9.188;2023-06-10T08:32:59;24.20;56.20
75451;DHT22;64029;48.244;9.188;2023-06-10T08:35:26;24.10;56.70
75451;DHT22;64029;48.244;9.188;2023-06-10T08:37:52;24.30;57.10
75451;DHT22;64029;48.244;9.188;2023-06-10T08:40:19;24.40;56.50
75451;DHT22;64029;48.244;9.188;2023-06-10T08:42:52;24.50;56.90
75451;DHT22;64029;48.244;9.188;2023-06-10T08:45:21;24.50;55.90
75451;DHT22;64029;48.244;9.188;2023-06-10T08:47:51;24.60;56.10
75451;DHT22;64029;48.244;9.188;2023-06-10T08:50:19;24.70;56.10
75451;DHT22;64029;48.244;9.188;2023-06-10T08:52:48;24.80;55.20
75451;DHT22;64029;48.244;9.188;2023-06-10T08:55:21;24.80;55.10
75451;DHT22;64029;48.244;9.188;2023-06-10T08:57:51;24.80;55.30
75451;DHT22;64029;48.244;9.188;2023-06-10T09:00:19;24.90;55.40
75451;DHT22;64029;48.244;9.188;2023-06-10T09:02:46;24.90;55.00
75451;DHT22;64029;48.244;9.188;2023-06-10T09:05:15;25.00;54.70
75451;DHT22;64029;48.244;9.188;2023-06-10T09:07:42;25.10;55.20
75451;DHT22;64029;48.244;9.188;2023-06-10T09:10:10;25.10;54.40
75451;DHT22;64029;48.244;9.188;2023-06-10T09:12:37;25.00;53.40
75451;DHT22;64029;48.244;9.188;2023-06-10T09:15:05;25.00;53.10
75451;DHT22;64029;48.244;9.188;2023-06-10T09:17:32;25.00;53.50
75451;DHT22;64029;48.244;9.188;2023-06-10T09:20:01;25.10;53.70
75451;DHT22;64029;48.244;9.188;2023-06-10T09:22:30;25.10;54.00
75451;DHT22;64029;48.244;9.188;2023-06-10T09:25:03;25.10;52.60
75451;DHT22;64029;48.244;9.188;2023-06-10T09:27:31;25.10;53.40
75451;DHT22;64029;48.244;9.188;2023-06-10T09:29:58;25.20;52.80
75451;DHT22;64029;48.244;9.188;2023-06-10T09:32:25;25.10;53.00
75451;DHT22;64029;48.244;9.188;2023-06-10T09:34:53;25.10;52.70
75451;DHT22;64029;48.244;9.188;2023-06-10T09:37:20;25.10;52.80
75451;DHT22;64029;48.244;9.188;2023-06-10T09:40:02;25.10;52.80
75451;DHT22;64029;48.244;9.188;2023-06-10T09:42:32;25.10;52.10
75451;DHT22;64029;48.244;9.188;2023-06-10T09:45:00;25.10;52.70
75451;DHT22;64029;48.244;9.188;2023-06-10T09:47:27;25.10;51.50
75451;DHT22;64029;48.244;9.188;2023-06-10T09:49:54;25.10;52.60
75451;DHT22;64029;48.244;9.188;2023-06-10T09:52:22;25.20;52.90
75451;DHT22;64029;48.244;9.188;2023-06-10T09:54:49;25.10;52.10
75451;DHT22;64029;48.244;9.188;2023-06-10T09:57:19;25.20;52.60
75451;DHT22;64029;48.244;9.188;2023-06-10T09:59:46;25.10;51.40
75451;DHT22;64029;48.244;9.188;2023-06-10T10:02:14;25.10;52.10
75451;DHT22;64029;48.244;9.188;2023-06-10T10:04:42;25.10;52.20
75451;DHT22;64029;48.244;9.188;2023-06-10T10:07:09;25.10;52.20
75451;DHT22;64029;48.244;9.188;2023-06-10T10:09:36;25.10;52.10
75451;DHT22;64029;48.244;9.188;2023-06-10T10:12:05;25.10;52.30
75451;DHT22;64029;48.244;9.188;2023-06-10T10:14:38;25.10;52.10
75451;DHT22;64029;48.244;9.188;2023-06-10T10:17:09;25.00;52.10
75451;DHT22;64029;48.244;9.188;2023-06-10T10:19:42;25.10;52.50
75451;DHT22;64029;48.244;9.188;2023-06-10T10:22:18;25.00;52.30
75451;DHT22;64029;48.244;9.188;2023-06-10T10:24:49;25.00;52.40
75451;DHT22;64029;48.244;9.188;2023-06-10T10:27:24;25.00;52.40
75451;DHT22;64029;48.244;9.188;2023-06-10T10:29:55;25.10;52.60
75451;DHT22;64029;48.244;9.188;2023-06-10T10:32:28;25.10;52.50
75451;DHT22;64029;48.244;9.188;2023-06-10T10:35:02;25.00;50.60
75451;DHT22;64029;48.244;9.188;2023-06-10T10:37:35;25.10;51.60
75451;DHT22;64029;48.244;9.188;2023-06-10T10:40:02;25.10;52.40
75451;DHT22;64029;48.244;9.188;2023-06-10T10:42:30;25.20;52.40
75451;DHT22;64029;48.244;9.188;2023-06-10T10:44:59;25.20;52.30
75451;DHT22;64029;48.244;9.188;2023-06-10T10:47:41;25.20;51.30
75451;DHT22;64029;48.244;9.188;2023-06-10T10:50:14;25.20;52.10
75451;DHT22;64029;48.244;9.188;2023-06-10T10:52:53;25.20;51.50
75451;DHT22;64029;48.244;9.188;2023-06-10T10:55:22;25.30;52.20
75451;DHT22;64029;48.244;9.188;2023-06-10T10:57:56;25.30;52.20
75451;DHT22;64029;48.244;9.188;2023-06-10T11:00:31;25.30;51.80
75451;DHT22;64029;48.244;9.188;2023-06-10T11:03:04;25.20;52.00
75451;DHT22;64029;48.244;9.188;2023-06-10T11:05:35;25.30;52.30
75451;DHT22;64029;48.244;9.188;2023-06-10T11:14:54;25.30;52.20
75451;DHT22;64029;48.244;9.188;2023-06-10T11:17:25;25.20;51.50
75451;DHT22;64029;48.244;9.188;2023-06-10T11:19:52;25.30;52.10
75451;DHT22;64029;48.244;9.188;2023-06-10T11:22:24;25.30;51.70
75451;DHT22;64029;48.244;9.188;2023-06-10T11:24:51;25.30;52.00
75451;DHT22;64029;48.244;9.188;2023-06-10T11:27:19;25.30;51.30
75451;DHT22;64029;48.244;9.188;2023-06-10T11:30:18;25.30;51.90
75451;DHT22;64029;48.244;9.188;2023-06-10T11:32:50;25.10;51.90
75451;DHT22;64029;48.244;9.188;2023-06-10T11:35:19;25.10;51.90
75451;DHT22;64029;48.244;9.188;2023-06-10T11:37:49;25.00;51.70
75451;DHT22;64029;48.244;9.188;2023-06-10T11:40:16;25.10;52.70
75451;DHT22;64029;48.244;9.188;2023-06-10T11:42:44;25.10;52.00
75451;DHT22;64029;48.244;9.188;2023-06-10T11:45:15;25.10;52.10
75451;DHT22;64029;48.244;9.188;2023-06-10T11:47:57;25.00;51.70
75451;DHT22;64029;48.244;9.188;2023-06-10T11:50:31;25.00;51.40
75451;DHT22;64029;48.244;9.188;2023-06-10T11:52:58;25.00;51.80
75451;DHT22;64029;48.244;9.188;2023-06-10T11:55:25;25.00;52.00
75451;DHT22;64029;48.244;9.188;2023-06-10T11:57:52;25.00;51.60
75451;DHT22;64029;48.244;9.188;2023-06-10T12:00:23;24.90;51.30
75451;DHT22;64029;48.244;9.188;2023-06-10T12:02:56;25.00;51.70
75451;DHT22;64029;48.244;9.188;2023-06-10T12:05:24;25.00;51.70
75451;DHT22;64029;48.244;9.188;2023-06-10T12:08:10;25.00;52.00
75451;DHT22;64029;48.244;9.188;2023-06-10T12:10:40;25.00;52.10
75451;DHT22;64029;48.244;9.188;2023-06-10T12:13:08;25.00;52.10
75451;DHT22;64029;48.244;9.188;2023-06-10T12:15:35;25.10;52.10
75451;DHT22;64029;48.244;9.188;2023-06-10T12:18:04;25.00;50.80
75451;DHT22;64029;48.244;9.188;2023-06-10T12:20:32;24.90;50.80
75451;DHT22;64029;48.244;9.188;2023-06-10T12:23:00;25.00;52.10
75451;DHT22;64029;48.244;9.188;2023-06-10T12:25:34;25.00;51.50
75451;DHT22;64029;48.244;9.188;2023-06-10T12:28:02;25.10;51.80
75451;DHT22;64029;48.244;9.188;2023-06-10T12:30:30;25.00;51.70
75451;DHT22;64029;48.244;9.188;2023-06-10T12:32:57;25.00;51.50
75451;DHT22;64029;48.244;9.188;2023-06-10T12:35:27;24.90;51.60
75451;DHT22;64029;48.244;9.188;2023-06-10T12:37:58;24.90;51.30
75451;DHT22;64029;48.244;9.188;2023-06-10T12:40:27;24.80;51.20
75451;DHT22;64029;48.244;9.188;2023-06-10T12:42:55;24.90;51.90
75451;DHT22;64029;48.244;9.188;2023-06-10T12:45:28;24.90;51.80
75451;DHT22;64029;48.244;9.188;2023-06-10T12:48:04;24.90;51.90
75451;DHT22;64029;48.244;9.188;2023-06-10T12:50:34;25.00;52.30
75451;DHT22;64029;48.244;9.188;2023-06-10T12:53:01;25.00;52.30
75451;DHT22;64029;48.244;9.188;2023-06-10T12:55:28;25.10;52.10
75451;DHT22;64029;48.244;9.188;2023-06-10T12:57:55;25.10;51.90
75451;DHT22;64029;48.244;9.188;2023-06-10T13:00:23;25.10;51.90
75451;DHT22;64029;48.244;9.188;2023-06-10T13:02:51;25.10;51.90
75451;DHT22;64029;48.244;9.188;2023-06-10T13:05:21;25.20;51.60
75451;DHT22;64029;48.244;9.188;2023-06-10T13:07:49;25.20;51.60
75451;DHT22;64029;48.244;9.188;2023-06-10T13:10:17;25.30;51.80
75451;DHT22;64029;48.244;9.188;2023-06-10T13:12:45;25.20;51.90
75451;DHT22;64029;48.244;9.188;2023-06-10T13:15:13;25.20;51.60
75451;DHT22;64029;48.244;9.188;2023-06-10T13:17:42;25.30;51.70
75451;DHT22;64029;48.244;9.188;2023-06-10T13:20:09;25.10;49.70
75451;DHT22;64029;48.244;9.188;2023-06-10T13:22:36;25.00;50.20
75451;DHT22;64029;48.244;9.188;2023-06-10T13:25:05;25.00;50.00
75451;DHT22;64029;48.244;9.188;2023-06-10T13:27:33;25.10;51.50
75451;DHT22;64029;48.244;9.188;2023-06-10T13:30:00;25.10;50.80
75451;DHT22;64029;48.244;9.188;2023-06-10T13:32:27;25.10;51.10
75451;DHT22;64029;48.244;9.188;2023-06-10T13:34:54;25.00;50.60
75451;DHT22;64029;48.244;9.188;2023-06-10T13:37:24;25.10;49.30
75451;DHT22;64029;48.244;9.188;2023-06-10T13:39:51;25.10;49.80
75451;DHT22;64029;48.244;9.188;2023-06-10T13:42:19;25.10;50.20
75451;DHT22;64029;48.244;9.188;2023-06-10T13:44:51;25.10;50.00
75451;DHT22;64029;48.244;9.188;2023-06-10T13:47:21;25.10;49.90
75451;DHT22;64029;48.244;9.188;2023-06-10T13:49:47;25.10;49.20
75451;DHT22;64029;48.244;9.188;2023-06-10T13:52:15;25.00;48.90
75451;DHT22;64029;48.244;9.188;2023-06-10T13:54:42;25.00;49.40
75451;DHT22;64029;48.244;9.188;2023-06-10T13:57:09;25.10;49.70
75451;DHT22;64029;48.244;9.188;2023-06-10T13:59:37;25.10;50.20
75451;DHT22;64029;48.244;9.188;2023-06-10T14:02:04;25.10;50.10
75451;DHT22;64029;48.244;9.188;2023-06-10T14:04:31;25.20;50.20
75451;DHT22;64029;48.244;9.188;2023-06-10T14:07:01;25.30;50.10
75451;DHT22;64029;48.244;9.188;2023-06-10T14:09:29;25.30;50.20
75451;DHT22;64029;48.244;9.188;2023-06-10T14:11:56;25.30;50.20
75451;DHT22;64029;48.244;9.188;2023-06-10T14:14:23;25.30;50.40
75451;DHT22;64029;48.244;9.188;2023-06-10T14:16:53;25.30;49.50
75451;DHT22;64029;48.244;9.188;2023-06-10T14:19:23;25.10;48.90
75451;DHT22;64029;48.244;9.188;2023-06-10T14:21:50;25.10;49.80
75451;DHT22;64029;48.244;9.188;2023-06-10T14:24:19;25.10;50.10
75451;DHT22;64029;48.244;9.188;2023-06-10T14:26:48;25.20;50.40
75451;DHT22;64029;48.244;9.188;2023-06-10T14:29:18;25.20;50.10
75451;DHT22;64029;48.244;9.188;2023-06-10T14:31:47;25.10;49.70
75451;DHT22;64029;48.244;9.188;2023-06-10T14:34:16;25.10;50.40
75451;DHT22;64029;48.244;9.188;2023-06-10T14:36:43;25.30;50.00
75451;DHT22;64029;48.244;9.188;2023-06-10T14:39:10;25.30;50.20
75451;DHT22;64029;48.244;9.188;2023-06-10T14:41:36;25.30;50.60
75451;DHT22;64029;48.244;9.188;2023-06-10T14:44:04;25.30;51.50
75451;DHT22;64029;48.244;9.188;2023-06-10T14:46:30;25.10;53.60
75451;DHT22;64029;48.244;9.188;2023-06-10T14:48:57;25.00;53.60
75451;DHT22;64029;48.244;9.188;2023-06-10T14:51:26;24.90;54.20
75451;DHT22;64029;48.244;9.188;2023-06-10T14:53:53;24.80;54.50
75451;DHT22;64029;48.244;9.188;2023-06-10T14:56:20;24.80;55.20
75451;DHT22;64029;48.244;9.188;2023-06-10T14:58:49;24.60;57.30
75451;DHT22;64029;48.244;9.188;2023-06-10T15:01:15;24.50;59.60
75451;DHT22;64029;48.244;9.188;2023-06-10T15:03:44;24.50;60.50
75451;DHT22;64029;48.244;9.188;2023-06-10T15:06:10;24.40;61.40
75451;DHT22;64029;48.244;9.188;2023-06-10T15:08:39;24.30;61.80
75451;DHT22;64029;48.244;9.188;2023-06-10T15:11:06;24.20;63.10
75451;DHT22;64029;48.244;9.188;2023-06-10T15:13:32;24.20;63.40
75451;DHT22;64029;48.244;9.188;2023-06-10T15:15:59;24.10;63.00
75451;DHT22;64029;48.244;9.188;2023-06-10T15:18:28;24.10;64.40
75451;DHT22;64029;48.244;9.188;2023-06-10T15:20:55;24.10;62.70
75451;DHT22;64029;48.244;9.188;2023-06-10T15:23:22;24.10;63.20
75451;DHT22;64029;48.244;9.188;2023-06-10T15:25:50;24.10;63.30
75451;DHT22;64029;48.244;9.188;2023-06-10T15:28:17;24.10;63.70
75451;DHT22;64029;48.244;9.188;2023-06-10T15:30:44;24.00;63.10
75451;DHT22;64029;48.244;9.188;2023-06-10T15:33:11;24.00;62.90
75451;DHT22;64029;48.244;9.188;2023-06-10T15:35:38;24.10;61.00
75451;DHT22;64029;48.244;9.188;2023-06-10T15:38:05;24.00;60.50
75451;DHT22;64029;48.244;9.188;2023-06-10T15:40:31;24.00;60.70
75451;DHT22;64029;48.244;9.188;2023-06-10T15:43:00;24.00;60.90